Ambia, Indiana
Current Conditions -  °F | °C
As of 9:15 AM on Friday 31 Oct 2014 (Local Time) from KDNV Reporting Station
Overcast Overcast  
Wind Chill: 34°   Ceiling: 2900
Heat Index: 40°   Visibility: 10mi
Dew Point: 36°   Wind: 9mph
Humidity: 85%   Direction: 320°NW
Pressure: 30.05"   Gusts: NA
Location:  40.49°N, 87.52°W
Report Text: KDNV 311315Z AUTO 32008KT 10SM SCT022 OVC029 05/02 A3005 RMK AO2 T00450022
Loading
Personal Weather Stations






























Interactive Weather Map
Tropical Storm Tracking
New forecast layout! Learn more

10-Day Weather Forecast

Advertisements
Track Severe Weather on mobile